sensor_id;sensor_type;location;lat;lon;timestamp;pressure;altitude;pressure_sealevel;temperature;humidity
60061;BME280;45933;51.336;12.612;2023-03-30T00:02:17;99420.13;;;11.83;57.04
60061;BME280;45933;51.336;12.612;2023-03-30T00:04:42;99416.63;;;11.81;57.42
60061;BME280;45933;51.336;12.612;2023-03-30T00:07:09;99382.63;;;11.85;57.30
60061;BME280;45933;51.336;12.612;2023-03-30T00:09:34;99388.78;;;11.83;57.33
60061;BME280;45933;51.336;12.612;2023-03-30T00:12:06;99398.31;;;11.85;57.34
60061;BME280;45933;51.336;12.612;2023-03-30T00:14:32;99403.53;;;11.85;56.91
60061;BME280;45933;51.336;12.612;2023-03-30T00:17:04;99413.06;;;11.86;57.38
60061;BME280;45933;51.336;12.612;2023-03-30T00:19:29;99411.34;;;11.85;57.47
60061;BME280;45933;51.336;12.612;2023-03-30T00:21:55;99400.91;;;11.87;57.37
60061;BME280;45933;51.336;12.612;2023-03-30T00:24:20;99379.97;;;11.88;57.10
60061;BME280;45933;51.336;12.612;2023-03-30T00:26:45;99371.22;;;11.89;57.16
60061;BME280;45933;51.336;12.612;2023-03-30T00:29:11;99364.22;;;11.91;57.36
60061;BME280;45933;51.336;12.612;2023-03-30T00:31:36;99339.00;;;11.90;57.60
60061;BME280;45933;51.336;12.612;2023-03-30T00:34:01;99341.59;;;11.92;57.35
60061;BME280;45933;51.336;12.612;2023-03-30T00:36:26;99346.81;;;11.90;57.31
60061;BME280;45933;51.336;12.612;2023-03-30T00:38:52;99334.63;;;11.92;57.23
60061;BME280;45933;51.336;12.612;2023-03-30T00:41:17;99349.44;;;11.92;57.30
60061;BME280;45933;51.336;12.612;2023-03-30T00:44:04;99336.06;;;12.04;56.53
60061;BME280;45933;51.336;12.612;2023-03-30T00:46:31;99347.66;;;11.92;57.35
60061;BME280;45933;51.336;12.612;2023-03-30T00:49:00;99328.53;;;11.92;57.50
60061;BME280;45933;51.336;12.612;2023-03-30T00:51:28;99343.38;;;11.90;57.61
60061;BME280;45933;51.336;12.612;2023-03-30T00:53:55;99333.72;;;11.93;57.60
60061;BME280;45933;51.336;12.612;2023-03-30T00:56:26;99322.41;;;11.93;57.51
60061;BME280;45933;51.336;12.612;2023-03-30T00:58:53;99318.97;;;11.91;57.73
60061;BME280;45933;51.336;12.612;2023-03-30T01:01:19;99308.59;;;11.88;58.06
60061;BME280;45933;51.336;12.612;2023-03-30T01:03:53;99311.16;;;11.89;57.50
60061;BME280;45933;51.336;12.612;2023-03-30T01:06:20;99304.22;;;11.88;57.68
60061;BME280;45933;51.336;12.612;2023-03-30T01:08:49;99305.94;;;11.89;57.54
60061;BME280;45933;51.336;12.612;2023-03-30T01:11:15;99302.47;;;11.89;57.72
60061;BME280;45933;51.336;12.612;2023-03-30T01:13:46;99303.28;;;11.92;58.06
60061;BME280;45933;51.336;12.612;2023-03-30T01:19:37;99297.03;;;11.98;57.36
60061;BME280;45933;51.336;12.612;2023-03-30T01:27:49;99296.22;;;11.96;57.57
60061;BME280;45933;51.336;12.612;2023-03-30T01:30:47;99299.66;;;11.98;58.10
60061;BME280;45933;51.336;12.612;2023-03-30T01:36:30;99281.28;;;12.02;57.24
60061;BME280;45933;51.336;12.612;2023-03-30T01:39:17;99278.66;;;12.02;57.29
60061;BME280;45933;51.336;12.612;2023-03-30T01:44:33;99265.72;;;11.98;57.67
60061;BME280;45933;51.336;12.612;2023-03-30T01:47:18;99271.59;;;12.06;57.02
60061;BME280;45933;51.336;12.612;2023-03-30T01:50:08;99274.19;;;12.06;57.46
60061;BME280;45933;51.336;12.612;2023-03-30T01:52:42;99267.47;;;11.96;58.10
60061;BME280;45933;51.336;12.612;2023-03-30T01:55:20;99270.06;;;11.97;57.93
60061;BME280;45933;51.336;12.612;2023-03-30T01:57:55;99269.94;;;12.02;57.88
60061;BME280;45933;51.336;12.612;2023-03-30T02:00:24;99274.44;;;11.97;58.04
60061;BME280;45933;51.336;12.612;2023-03-30T02:02:59;99261.22;;;12.03;57.75
60061;BME280;45933;51.336;12.612;2023-03-30T02:05:27;99267.56;;;11.93;58.51
60061;BME280;45933;51.336;12.612;2023-03-30T02:08:00;99263.03;;;11.99;58.53
60061;BME280;45933;51.336;12.612;2023-03-30T02:10:28;99247.31;;;12.01;58.16
60061;BME280;45933;51.336;12.612;2023-03-30T02:12:56;99245.56;;;12.03;57.93
60061;BME280;45933;51.336;12.612;2023-03-30T02:15:25;99234.22;;;12.04;58.11
60061;BME280;45933;51.336;12.612;2023-03-30T02:17:53;99221.09;;;12.06;57.58
60061;BME280;45933;51.336;12.612;2023-03-30T02:20:19;99201.16;;;12.03;58.07
60061;BME280;45933;51.336;12.612;2023-03-30T02:22:44;99215.91;;;12.04;57.90
60061;BME280;45933;51.336;12.612;2023-03-30T02:25:12;99205.53;;;12.02;57.81
60061;BME280;45933;51.336;12.612;2023-03-30T02:27:37;99204.63;;;12.02;57.99
60061;BME280;45933;51.336;12.612;2023-03-30T02:30:04;99204.63;;;12.03;57.95
60061;BME280;45933;51.336;12.612;2023-03-30T02:32:38;99208.94;;;12.04;58.13
60061;BME280;45933;51.336;12.612;2023-03-30T02:35:21;99195.84;;;12.06;57.95
60061;BME280;45933;51.336;12.612;2023-03-30T02:38:14;99189.06;;;11.99;58.40
60061;BME280;45933;51.336;12.612;2023-03-30T02:43:42;99182.19;;;11.95;58.42
60061;BME280;45933;51.336;12.612;2023-03-30T02:49:17;99168.91;;;12.04;58.02
60061;BME280;45933;51.336;12.612;2023-03-30T02:51:49;99175.47;;;11.85;58.93
60061;BME280;45933;51.336;12.612;2023-03-30T02:54:25;99169.22;;;11.92;59.00
60061;BME280;45933;51.336;12.612;2023-03-30T02:56:57;99175.41;;;11.88;59.07
60061;BME280;45933;51.336;12.612;2023-03-30T02:59:51;99166.28;;;12.04;57.86
60061;BME280;45933;51.336;12.612;2023-03-30T03:02:32;99165.72;;;11.93;58.79
60061;BME280;45933;51.336;12.612;2023-03-30T03:04:59;99170.16;;;11.89;58.82
60061;BME280;45933;51.336;12.612;2023-03-30T03:07:29;99153.56;;;11.90;58.73
60061;BME280;45933;51.336;12.612;2023-03-30T03:09:56;99146.59;;;11.92;58.98
60061;BME280;45933;51.336;12.612;2023-03-30T03:12:22;99147.50;;;11.90;58.92
60061;BME280;45933;51.336;12.612;2023-03-30T03:14:47;99150.84;;;11.95;58.66
60061;BME280;45933;51.336;12.612;2023-03-30T03:17:13;99157.03;;;11.92;58.57
60061;BME280;45933;51.336;12.612;2023-03-30T03:19:40;99164.13;;;11.87;58.79
60061;BME280;45933;51.336;12.612;2023-03-30T03:22:06;99157.78;;;11.96;58.61
60061;BME280;45933;51.336;12.612;2023-03-30T03:24:31;99153.47;;;11.95;58.52
60061;BME280;45933;51.336;12.612;2023-03-30T03:26:58;99146.53;;;11.94;58.95
60061;BME280;45933;51.336;12.612;2023-03-30T03:29:23;99136.81;;;11.99;58.47
60061;BME280;45933;51.336;12.612;2023-03-30T03:31:48;99133.41;;;11.97;58.25
60061;BME280;45933;51.336;12.612;2023-03-30T03:34:13;99136.03;;;11.95;58.37
60061;BME280;45933;51.336;12.612;2023-03-30T03:36:39;99139.47;;;11.97;58.23
60061;BME280;45933;51.336;12.612;2023-03-30T03:39:04;99131.59;;;11.99;58.36
60061;BME280;45933;51.336;12.612;2023-03-30T03:41:30;99137.84;;;11.93;58.69
60061;BME280;45933;51.336;12.612;2023-03-30T03:43:55;99142.84;;;12.02;58.16
60061;BME280;45933;51.336;12.612;2023-03-30T03:46:20;99129.78;;;12.01;58.20
60061;BME280;45933;51.336;12.612;2023-03-30T03:48:46;99127.28;;;11.98;58.24
60061;BME280;45933;51.336;12.612;2023-03-30T03:51:11;99131.66;;;11.97;58.12
60061;BME280;45933;51.336;12.612;2023-03-30T03:53:36;99131.66;;;11.97;58.57
60061;BME280;45933;51.336;12.612;2023-03-30T03:56:02;99153.28;;;12.02;58.12
60061;BME280;45933;51.336;12.612;2023-03-30T03:58:28;99155.09;;;11.99;58.21
60061;BME280;45933;51.336;12.612;2023-03-30T04:00:57;99152.44;;;12.00;58.26
60061;BME280;45933;51.336;12.612;2023-03-30T04:03:23;99148.06;;;12.02;57.96
60061;BME280;45933;51.336;12.612;2023-03-30T04:05:48;99132.28;;;12.06;57.84
60061;BME280;45933;51.336;12.612;2023-03-30T04:08:13;99133.25;;;12.01;58.05
60061;BME280;45933;51.336;12.612;2023-03-30T04:10:42;99137.69;;;11.99;57.99
60061;BME280;45933;51.336;12.612;2023-03-30T04:13:08;99143.75;;;12.00;58.01
60061;BME280;45933;51.336;12.612;2023-03-30T04:15:33;99155.00;;;12.03;57.91
60061;BME280;45933;51.336;12.612;2023-03-30T04:17:59;99147.06;;;12.07;57.67
60061;BME280;45933;51.336;12.612;2023-03-30T04:20:25;99148.00;;;12.04;57.89
60061;BME280;45933;51.336;12.612;2023-03-30T04:22:51;99139.22;;;12.07;57.52
60061;BME280;45933;51.336;12.612;2023-03-30T04:25:19;99131.31;;;12.10;57.53
60061;BME280;45933;51.336;12.612;2023-03-30T04:27:47;99130.66;;;12.01;57.81
60061;BME280;45933;51.336;12.612;2023-03-30T04:30:16;99128.00;;;12.03;57.77
60061;BME280;45933;51.336;12.612;2023-03-30T04:32:41;99122.81;;;12.01;57.73
60061;BME280;45933;51.336;12.612;2023-03-30T04:35:08;99123.53;;;12.08;57.49
60061;BME280;45933;51.336;12.612;2023-03-30T04:37:34;99120.88;;;12.10;57.40
60061;BME280;45933;51.336;12.612;2023-03-30T04:40:00;99116.50;;;12.10;57.25
60061;BME280;45933;51.336;12.612;2023-03-30T04:42:27;99122.56;;;12.11;57.37
60061;BME280;45933;51.336;12.612;2023-03-30T04:45:02;99121.44;;;12.21;57.01
60061;BME280;45933;51.336;12.612;2023-03-30T04:47:28;99122.41;;;12.17;57.06
60061;BME280;45933;51.336;12.612;2023-03-30T04:49:54;99111.81;;;12.21;56.73
60061;BME280;45933;51.336;12.612;2023-03-30T04:52:20;99122.09;;;12.27;56.67
60061;BME280;45933;51.336;12.612;2023-03-30T04:54:45;99109.91;;;12.28;56.46
60061;BME280;45933;51.336;12.612;2023-03-30T04:57:12;99108.38;;;12.21;56.48
60061;BME280;45933;51.336;12.612;2023-03-30T04:59:39;99106.34;;;12.30;56.26
60061;BME280;45933;51.336;12.612;2023-03-30T05:02:04;99094.09;;;12.33;56.07
60061;BME280;45933;51.336;12.612;2023-03-30T05:04:30;99093.06;;;12.38;56.07
60061;BME280;45933;51.336;12.612;2023-03-30T05:06:55;99087.81;;;12.38;56.17
60061;BME280;45933;51.336;12.612;2023-03-30T05:09:21;99086.22;;;12.34;56.37
60061;BME280;45933;51.336;12.612;2023-03-30T05:11:46;99088.78;;;12.36;56.52
60061;BME280;45933;51.336;12.612;2023-03-30T05:14:13;99091.16;;;12.45;55.88
60061;BME280;45933;51.336;12.612;2023-03-30T05:16:38;99107.81;;;12.41;55.95
60061;BME280;45933;51.336;12.612;2023-03-30T05:19:03;99116.41;;;12.44;55.82
60061;BME280;45933;51.336;12.612;2023-03-30T05:21:28;99116.41;;;12.44;55.91
60061;BME280;45933;51.336;12.612;2023-03-30T05:23:55;99111.41;;;12.37;55.99
60061;BME280;45933;51.336;12.612;2023-03-30T05:26:21;99097.34;;;12.41;55.80
60061;BME280;45933;51.336;12.612;2023-03-30T05:28:46;99100.78;;;12.43;55.79
60061;BME280;45933;51.336;12.612;2023-03-30T05:31:11;99101.72;;;12.40;55.91
60061;BME280;45933;51.336;12.612;2023-03-30T05:33:37;99101.50;;;12.48;55.68
60061;BME280;45933;51.336;12.612;2023-03-30T05:36:02;99100.63;;;12.47;55.86
60061;BME280;45933;51.336;12.612;2023-03-30T05:38:28;99099.56;;;12.54;55.30
60061;BME280;45933;51.336;12.612;2023-03-30T05:40:53;99101.31;;;12.54;55.40
60061;BME280;45933;51.336;12.612;2023-03-30T05:43:19;99102.88;;;12.60;54.97
60061;BME280;45933;51.336;12.612;2023-03-30T05:45:45;99108.97;;;12.60;55.00
60061;BME280;45933;51.336;12.612;2023-03-30T05:48:10;99108.63;;;12.72;54.76
60061;BME280;45933;51.336;12.612;2023-03-30T05:50:35;99105.97;;;12.74;54.85
60061;BME280;45933;51.336;12.612;2023-03-30T05:53:01;99114.53;;;12.79;54.56
60061;BME280;45933;51.336;12.612;2023-03-30T05:55:26;99116.34;;;12.77;54.67
60061;BME280;45933;51.336;12.612;2023-03-30T05:57:52;99106.63;;;12.80;54.53
60061;BME280;45933;51.336;12.612;2023-03-30T06:00:18;99108.38;;;12.80;54.30
60061;BME280;45933;51.336;12.612;2023-03-30T06:02:45;99100.28;;;12.89;54.11
60061;BME280;45933;51.336;12.612;2023-03-30T06:05:11;99089.88;;;12.88;54.17
60061;BME280;45933;51.336;12.612;2023-03-30T06:07:36;99080.34;;;12.85;54.05
60061;BME280;45933;51.336;12.612;2023-03-30T06:10:02;99076.72;;;12.89;53.97
60061;BME280;45933;51.336;12.612;2023-03-30T06:12:29;99073.00;;;12.96;53.82
60061;BME280;45933;51.336;12.612;2023-03-30T06:14:55;99057.44;;;12.93;53.83
60061;BME280;45933;51.336;12.612;2023-03-30T06:17:20;99049.44;;;12.98;53.67
60061;BME280;45933;51.336;12.612;2023-03-30T06:19:46;99062.38;;;13.02;53.54
60061;BME280;45933;51.336;12.612;2023-03-30T06:22:11;99052.44;;;13.12;53.51
60061;BME280;45933;51.336;12.612;2023-03-30T06:24:37;99054.19;;;13.13;53.46
60061;BME280;45933;51.336;12.612;2023-03-30T06:27:02;99049.03;;;13.10;53.24
60061;BME280;45933;51.336;12.612;2023-03-30T06:29:28;99039.44;;;13.11;53.41
60061;BME280;45933;51.336;12.612;2023-03-30T06:31:53;99037.56;;;13.14;53.51
60061;BME280;45933;51.336;12.612;2023-03-30T06:34:19;99028.72;;;13.18;53.31
60061;BME280;45933;51.336;12.612;2023-03-30T06:36:45;99026.91;;;13.20;53.23
60061;BME280;45933;51.336;12.612;2023-03-30T06:39:12;99032.81;;;13.27;53.02
60061;BME280;45933;51.336;12.612;2023-03-30T06:41:37;99038.66;;;13.35;53.10
60061;BME280;45933;51.336;12.612;2023-03-30T06:44:02;99028.03;;;13.40;52.81
60061;BME280;45933;51.336;12.612;2023-03-30T06:46:27;99020.13;;;13.41;52.75
60061;BME280;45933;51.336;12.612;2023-03-30T06:48:53;99034.91;;;13.42;53.11
60061;BME280;45933;51.336;12.612;2023-03-30T06:51:18;99033.63;;;13.54;53.39
60061;BME280;45933;51.336;12.612;2023-03-30T06:53:45;99041.00;;;13.43;52.65
60061;BME280;45933;51.336;12.612;2023-03-30T06:56:10;99028.09;;;13.63;52.59
60061;BME280;45933;51.336;12.612;2023-03-30T06:58:36;99019.06;;;13.72;52.73
60061;BME280;45933;51.336;12.612;2023-03-30T07:01:12;99013.38;;;13.84;52.64
60061;BME280;45933;51.336;12.612;2023-03-30T07:03:38;99018.63;;;13.84;52.49
60061;BME280;45933;51.336;12.612;2023-03-30T07:06:06;99017.44;;;13.93;52.86
60061;BME280;45933;51.336;12.612;2023-03-30T07:08:32;99016.22;;;14.03;53.00
60061;BME280;45933;51.336;12.612;2023-03-30T07:10:58;99022.75;;;14.15;53.05
60061;BME280;45933;51.336;12.612;2023-03-30T07:13:24;99015.41;;;14.24;53.01
60061;BME280;45933;51.336;12.612;2023-03-30T07:15:49;99033.28;;;14.36;52.68
60061;BME280;45933;51.336;12.612;2023-03-30T07:18:16;99026.88;;;14.45;53.04
60061;BME280;45933;51.336;12.612;2023-03-30T07:20:43;99034.53;;;14.51;52.73
60061;BME280;45933;51.336;12.612;2023-03-30T07:23:08;99029.22;;;14.53;52.89
60061;BME280;45933;51.336;12.612;2023-03-30T07:25:35;99035.63;;;14.68;52.70
60061;BME280;45933;51.336;12.612;2023-03-30T07:28:01;99032.09;;;14.69;52.88
60061;BME280;45933;51.336;12.612;2023-03-30T07:30:26;99037.69;;;14.81;52.96
60061;BME280;45933;51.336;12.612;2023-03-30T07:32:51;99042.59;;;14.90;53.07
60061;BME280;45933;51.336;12.612;2023-03-30T07:35:17;99035.41;;;14.96;53.24
60061;BME280;45933;51.336;12.612;2023-03-30T07:37:42;99028.84;;;15.06;53.35
60061;BME280;45933;51.336;12.612;2023-03-30T07:40:08;99026.72;;;15.15;53.24
60061;BME280;45933;51.336;12.612;2023-03-30T07:42:34;99029.28;;;15.17;53.43
60061;BME280;45933;51.336;12.612;2023-03-30T07:44:59;99024.56;;;15.25;53.22
60061;BME280;45933;51.336;12.612;2023-03-30T07:47:24;99024.19;;;15.34;52.91
60061;BME280;45933;51.336;12.612;2023-03-30T07:49:50;99024.19;;;15.34;53.34
60061;BME280;45933;51.336;12.612;2023-03-30T07:52:16;99019.91;;;15.32;53.58
60061;BME280;45933;51.336;12.612;2023-03-30T07:54:41;99019.66;;;15.38;53.45
60061;BME280;45933;51.336;12.612;2023-03-30T07:57:09;99018.63;;;15.42;53.13
60061;BME280;45933;51.336;12.612;2023-03-30T07:59:34;99033.13;;;15.51;53.42
60061;BME280;45933;51.336;12.612;2023-03-30T08:01:59;99031.88;;;15.59;53.39
60061;BME280;45933;51.336;12.612;2023-03-30T08:04:25;99039.47;;;15.67;53.34
60061;BME280;45933;51.336;12.612;2023-03-30T08:06:52;99031.31;;;15.73;52.90
60061;BME280;45933;51.336;12.612;2023-03-30T08:09:18;99036.56;;;15.73;52.16
60061;BME280;45933;51.336;12.612;2023-03-30T08:11:43;99031.59;;;15.87;51.57
60061;BME280;45933;51.336;12.612;2023-03-30T08:14:09;99044.66;;;15.89;51.12
60061;BME280;45933;51.336;12.612;2023-03-30T08:16:34;99056.28;;;15.83;51.12
60061;BME280;45933;51.336;12.612;2023-03-30T08:18:59;99047.09;;;15.93;51.34
60061;BME280;45933;51.336;12.612;2023-03-30T08:21:25;99052.47;;;15.90;50.98
60061;BME280;45933;51.336;12.612;2023-03-30T08:23:52;99058.44;;;15.94;50.61
60061;BME280;45933;51.336;12.612;2023-03-30T08:26:17;99052.13;;;15.98;50.75
60061;BME280;45933;51.336;12.612;2023-03-30T08:28:43;99058.09;;;16.02;50.72
60061;BME280;45933;51.336;12.612;2023-03-30T08:31:08;99058.28;;;15.97;50.70
60061;BME280;45933;51.336;12.612;2023-03-30T08:33:37;99061.19;;;15.91;50.22
60061;BME280;45933;51.336;12.612;2023-03-30T08:36:04;99068.09;;;15.93;50.29
60061;BME280;45933;51.336;12.612;2023-03-30T08:38:29;99072.25;;;15.79;50.49
60061;BME280;45933;51.336;12.612;2023-03-30T08:40:55;99073.56;;;15.89;50.07
60061;BME280;45933;51.336;12.612;2023-03-30T08:43:39;99074.28;;;15.92;50.11
60061;BME280;45933;51.336;12.612;2023-03-30T08:46:14;99069.88;;;15.93;49.89
60061;BME280;45933;51.336;12.612;2023-03-30T08:48:40;99061.47;;;15.85;50.24
60061;BME280;45933;51.336;12.612;2023-03-30T08:51:27;99059.56;;;15.88;50.18
60061;BME280;45933;51.336;12.612;2023-03-30T08:54:15;99069.88;;;15.73;50.42
60061;BME280;45933;51.336;12.612;2023-03-30T08:57:28;99067.91;;;15.78;50.63
60061;BME280;45933;51.336;12.612;2023-03-30T09:00:01;99076.72;;;15.77;50.37
60061;BME280;45933;51.336;12.612;2023-03-30T09:02:33;99069.69;;;15.55;50.85
60061;BME280;45933;51.336;12.612;2023-03-30T09:05:31;99067.25;;;15.73;50.77
60061;BME280;45933;51.336;12.612;2023-03-30T09:08:20;99068.66;;;15.59;50.84
60061;BME280;45933;51.336;12.612;2023-03-30T09:10:52;99062.91;;;15.50;51.15
60061;BME280;45933;51.336;12.612;2023-03-30T09:13:21;99074.16;;;15.53;51.12
60061;BME280;45933;51.336;12.612;2023-03-30T09:16:12;99069.63;;;15.36;51.71
60061;BME280;45933;51.336;12.612;2023-03-30T09:18:41;99066.81;;;15.41;51.46
60061;BME280;45933;51.336;12.612;2023-03-30T09:21:11;99073.69;;;15.43;51.76
60061;BME280;45933;51.336;12.612;2023-03-30T09:23:38;99068.94;;;15.31;52.05
60061;BME280;45933;51.336;12.612;2023-03-30T09:31:17;99058.66;;;15.47;51.83
60061;BME280;45933;51.336;12.612;2023-03-30T09:34:02;99054.19;;;15.49;52.13
60061;BME280;45933;51.336;12.612;2023-03-30T09:36:43;99064.19;;;15.41;52.52
60061;BME280;45933;51.336;12.612;2023-03-30T09:39:23;99073.56;;;15.47;52.64
60061;BME280;45933;51.336;12.612;2023-03-30T09:42:12;99071.13;;;15.42;53.08
60061;BME280;45933;51.336;12.612;2023-03-30T09:44:50;99083.00;;;15.30;53.46
60061;BME280;45933;51.336;12.612;2023-03-30T09:47:32;99084.19;;;15.43;53.37
60061;BME280;45933;51.336;12.612;2023-03-30T09:50:01;99098.31;;;15.41;53.50
60061;BME280;45933;51.336;12.612;2023-03-30T09:52:30;99076.28;;;15.45;53.87
60061;BME280;45933;51.336;12.612;2023-03-30T09:57:43;99070.41;;;15.38;54.37
60061;BME280;45933;51.336;12.612;2023-03-30T10:00:37;99070.56;;;15.56;54.42
60061;BME280;45933;51.336;12.612;2023-03-30T10:03:07;99067.47;;;15.46;54.79
60061;BME280;45933;51.336;12.612;2023-03-30T10:05:42;99056.63;;;15.54;54.76
60061;BME280;45933;51.336;12.612;2023-03-30T10:08:20;99066.81;;;15.41;55.22
60061;BME280;45933;51.336;12.612;2023-03-30T10:10:52;99063.50;;;15.36;55.42
60061;BME280;45933;51.336;12.612;2023-03-30T10:13:19;99067.78;;;15.38;55.57
60061;BME280;45933;51.336;12.612;2023-03-30T10:15:51;99055.50;;;15.39;55.92
60061;BME280;45933;51.336;12.612;2023-03-30T10:18:22;99067.50;;;15.44;55.94
60061;BME280;45933;51.336;12.612;2023-03-30T10:23:40;99072.56;;;15.49;55.77
60061;BME280;45933;51.336;12.612;2023-03-30T10:26:15;99066.81;;;15.41;56.50
60061;BME280;45933;51.336;12.612;2023-03-30T10:28:55;99064.28;;;15.38;56.96
60061;BME280;45933;51.336;12.612;2023-03-30T10:31:22;99052.63;;;15.45;56.60
60061;BME280;45933;51.336;12.612;2023-03-30T10:33:48;99061.81;;;15.55;56.37
60061;BME280;45933;51.336;12.612;2023-03-30T10:36:15;99047.91;;;15.53;56.83
60061;BME280;45933;51.336;12.612;2023-03-30T10:38:43;99059.19;;;15.55;57.24
60061;BME280;45933;51.336;12.612;2023-03-30T10:41:12;99047.34;;;15.67;56.81
60061;BME280;45933;51.336;12.612;2023-03-30T10:43:40;99036.31;;;15.79;56.59
60061;BME280;45933;51.336;12.612;2023-03-30T10:46:14;99039.97;;;15.95;56.18
60061;BME280;45933;51.336;12.612;2023-03-30T10:51:56;99046.69;;;16.21;55.56
60061;BME280;45933;51.336;12.612;2023-03-30T10:54:40;99054.97;;;16.33;54.97
60061;BME280;45933;51.336;12.612;2023-03-30T10:57:13;99039.00;;;16.56;54.67
60061;BME280;45933;51.336;12.612;2023-03-30T11:02:45;99030.72;;;16.64;54.26
60061;BME280;45933;51.336;12.612;2023-03-30T11:05:33;99039.34;;;16.67;54.03
60061;BME280;45933;51.336;12.612;2023-03-30T11:08:10;99022.75;;;16.65;53.86
60061;BME280;45933;51.336;12.612;2023-03-30T11:10:39;99033.28;;;16.65;53.92
60061;BME280;45933;51.336;12.612;2023-03-30T11:13:10;99029.94;;;16.62;54.10
60061;BME280;45933;51.336;12.612;2023-03-30T11:15:52;99023.53;;;16.67;53.78
60061;BME280;45933;51.336;12.612;2023-03-30T11:18:22;99009.66;;;16.64;53.85
60061;BME280;45933;51.336;12.612;2023-03-30T11:21:03;99015.50;;;16.70;54.66
60061;BME280;45933;51.336;12.612;2023-03-30T11:23:46;99001.59;;;16.87;54.19
60061;BME280;45933;51.336;12.612;2023-03-30T11:26:21;99004.22;;;17.05;53.99
60061;BME280;45933;51.336;12.612;2023-03-30T11:28:54;99005.72;;;17.28;53.69
60061;BME280;45933;51.336;12.612;2023-03-30T11:37:24;98971.88;;;18.21;51.37
60061;BME280;45933;51.336;12.612;2023-03-30T11:40:11;98977.28;;;18.51;50.91
60061;BME280;45933;51.336;12.612;2023-03-30T11:42:37;98984.63;;;18.77;49.70
60061;BME280;45933;51.336;12.612;2023-03-30T11:48:13;98976.75;;;19.22;47.77
60061;BME280;45933;51.336;12.612;2023-03-30T11:51:02;98977.41;;;19.41;48.93
60061;BME280;45933;51.336;12.612;2023-03-30T11:53:50;98988.50;;;19.32;47.19
60061;BME280;45933;51.336;12.612;2023-03-30T11:59:26;98949.03;;;19.29;48.21
60061;BME280;45933;51.336;12.612;2023-03-30T12:02:22;98945.81;;;19.24;47.79
60061;BME280;45933;51.336;12.612;2023-03-30T12:04:58;98940.03;;;19.17;47.89
60061;BME280;45933;51.336;12.612;2023-03-30T12:09:54;98919.59;;;19.21;47.62
60061;BME280;45933;51.336;12.612;2023-03-30T12:12:35;98917.94;;;19.48;47.76
60061;BME280;45933;51.336;12.612;2023-03-30T12:18:16;98917.97;;;19.91;47.07
60061;BME280;45933;51.336;12.612;2023-03-30T12:20:50;98911.84;;;20.05;46.08
60061;BME280;45933;51.336;12.612;2023-03-30T12:23:36;98919.44;;;20.24;45.59
60061;BME280;45933;51.336;12.612;2023-03-30T12:26:18;98899.91;;;20.12;45.07
60061;BME280;45933;51.336;12.612;2023-03-30T12:29:13;98878.84;;;20.10;45.25
60061;BME280;45933;51.336;12.612;2023-03-30T12:34:18;98867.59;;;20.07;45.50
60061;BME280;45933;51.336;12.612;2023-03-30T12:36:48;98876.72;;;19.89;45.22
60061;BME280;45933;51.336;12.612;2023-03-30T12:39:21;98876.88;;;20.00;44.82
60061;BME280;45933;51.336;12.612;2023-03-30T12:42:09;98883.25;;;19.83;45.54
60061;BME280;45933;51.336;12.612;2023-03-30T12:47:35;98873.56;;;19.96;45.82
60061;BME280;45933;51.336;12.612;2023-03-30T12:50:16;98872.59;;;20.11;45.79
60061;BME280;45933;51.336;12.612;2023-03-30T12:53:16;98875.13;;;20.27;45.44
60061;BME280;45933;51.336;12.612;2023-03-30T12:56:10;98875.09;;;20.42;45.13
60061;BME280;45933;51.336;12.612;2023-03-30T12:58:41;98882.25;;;20.40;43.87
60061;BME280;45933;51.336;12.612;2023-03-30T13:01:31;98877.72;;;20.42;43.40
60061;BME280;45933;51.336;12.612;2023-03-30T13:04:05;98862.59;;;20.44;43.07
60061;BME280;45933;51.336;12.612;2023-03-30T13:06:38;98867.44;;;20.37;42.78
60061;BME280;45933;51.336;12.612;2023-03-30T13:11:45;98882.50;;;20.22;42.62
60061;BME280;45933;51.336;12.612;2023-03-30T13:14:38;98865.16;;;20.04;42.54
60061;BME280;45933;51.336;12.612;2023-03-30T13:17:16;98896.41;;;20.11;42.96
60061;BME280;45933;51.336;12.612;2023-03-30T13:19:46;98864.50;;;20.00;42.69
60061;BME280;45933;51.336;12.612;2023-03-30T13:27:37;98857.25;;;19.75;42.71
60061;BME280;45933;51.336;12.612;2023-03-30T13:41:03;98859.03;;;19.32;43.54
60061;BME280;45933;51.336;12.612;2023-03-30T13:43:46;98856.84;;;19.24;43.88
60061;BME280;45933;51.336;12.612;2023-03-30T13:51:42;98853.63;;;19.19;44.27
60061;BME280;45933;51.336;12.612;2023-03-30T13:54:16;98859.78;;;19.20;44.16
60061;BME280;45933;51.336;12.612;2023-03-30T13:56:47;98855.41;;;19.19;43.84
60061;BME280;45933;51.336;12.612;2023-03-30T13:59:23;98858.72;;;19.22;43.73
60061;BME280;45933;51.336;12.612;2023-03-30T14:01:53;98853.28;;;19.25;43.74
60061;BME280;45933;51.336;12.612;2023-03-30T14:04:20;98855.78;;;19.13;42.98
60061;BME280;45933;51.336;12.612;2023-03-30T14:06:47;98842.72;;;19.25;42.19
60061;BME280;45933;51.336;12.612;2023-03-30T14:09:24;98846.38;;;19.23;41.33
60061;BME280;45933;51.336;12.612;2023-03-30T14:12:02;98840.78;;;19.13;40.32
60061;BME280;45933;51.336;12.612;2023-03-30T14:16:58;98864.19;;;19.19;40.50
60061;BME280;45933;51.336;12.612;2023-03-30T14:19:27;98899.69;;;19.15;40.01
60061;BME280;45933;51.336;12.612;2023-03-30T14:21:57;98898.38;;;18.92;40.26
60061;BME280;45933;51.336;12.612;2023-03-30T14:24:29;98930.69;;;18.66;42.99
60061;BME280;45933;51.336;12.612;2023-03-30T14:27:06;98957.88;;;18.52;43.03
60061;BME280;45933;51.336;12.612;2023-03-30T14:29:46;98955.56;;;18.14;45.02
60061;BME280;45933;51.336;12.612;2023-03-30T14:32:14;98970.75;;;17.76;45.71
60061;BME280;45933;51.336;12.612;2023-03-30T14:34:45;98975.81;;;17.63;46.53
60061;BME280;45933;51.336;12.612;2023-03-30T14:37:11;98983.50;;;17.16;48.00